Alev Kaman — TCCN5 — position and weather

sailwx.info

Track history (hours):
 
Tides and Currents Weather Stations Pressure Air Temp Water Temp Dewpoint Dewpoint Depression Visibility Wind Speed Wind Dir Waves Ship Positions

Alev Kaman

Last reported at 2016-Dec-24 12:20 UTC. Time now 2017-Jan-21 10:49 UTC.
Position N 40°53' E 029°01'.
Warning: this ship's position is 27 days out of date.

Length 93 m; draft 6 m.

Type: Tanker. MMSI: 271000716.

Date/timePositionNaut miles runAvg speedWind from/ knotsBaromVisibWave heightAir tempDewpointWater temp
2016-Dec-24 12:20N 40°53' E 029°01'9 7.7
2016-Dec-24 11:10N 40°45' E 028°57'0 0.5
2016-Dec-24 10:31N 40°44' E 028°57'1 1.2
2016-Dec-24 09:22N 40°45' E 028°58'1 1.5
2016-Dec-24 08:25N 40°47' E 028°59'9 2.8
2016-Dec-24 05:09N 40°39' E 028°52'1 2.3
2016-Dec-24 04:30N 40°40' E 028°53'2 1.8
2016-Dec-24 03:32N 40°40' E 028°56'1 1.2
2016-Dec-24 02:32N 40°40' E 028°57'1 1.0
2016-Dec-24 01:33N 40°41' E 028°58'1 1.0
2016-Dec-24 00:31N 40°41' E 028°60'1 1.0
2016-Dec-23 23:32N 40°42' E 029°01'1 1.2
2016-Dec-23 22:32N 40°43' E 029°01'1 1.5
2016-Dec-23 21:33N 40°44' E 029°01'2 1.8
2016-Dec-23 20:33N 40°46' E 029°02'8 8.1
2016-Dec-23 19:33N 40°46' E 029°13'9 9.2
2016-Dec-23 18:33N 40°45' E 029°25'  
2016-Dec-21 02:32N 40°46' E 029°41'  
Track history (hours):
 
Tides and Currents Weather Stations Pressure Air Temp Water Temp Dewpoint Dewpoint Depression Visibility Wind Speed Wind Dir Waves Ship Positions

Alev Kaman

Last reported at 2016-Dec-24 12:20 UTC. Time now 2017-Jan-21 10:49 UTC.
Position N 40°53' E 029°01'.
Warning: this ship's position is 27 days out of date.

Length 93 m; draft 6 m.

Type: Tanker. MMSI: 271000716.

Date/timePositionNaut miles runAvg speedWind from/ knotsBaromVisibWave heightAir tempDewpointWater temp
2016-Dec-24 12:20N 40°53' E 029°01'9 7.7
2016-Dec-24 11:10N 40°45' E 028°57'0 0.5
2016-Dec-24 10:31N 40°44' E 028°57'1 1.2
2016-Dec-24 09:22N 40°45' E 028°58'1 1.5
2016-Dec-24 08:25N 40°47' E 028°59'9 2.8
2016-Dec-24 05:09N 40°39' E 028°52'1 2.3
2016-Dec-24 04:30N 40°40' E 028°53'2 1.8
2016-Dec-24 03:32N 40°40' E 028°56'1 1.2
2016-Dec-24 02:32N 40°40' E 028°57'1 1.0
2016-Dec-24 01:33N 40°41' E 028°58'1 1.0
2016-Dec-24 00:31N 40°41' E 028°60'1 1.0
2016-Dec-23 23:32N 40°42' E 029°01'1 1.2
2016-Dec-23 22:32N 40°43' E 029°01'1 1.5
2016-Dec-23 21:33N 40°44' E 029°01'2 1.8
2016-Dec-23 20:33N 40°46' E 029°02'8 8.1
2016-Dec-23 19:33N 40°46' E 029°13'9 9.2
2016-Dec-23 18:33N 40°45' E 029°25'  
2016-Dec-21 02:32N 40°46' E 029°41'  

Dump ship's entire track history